Strona główna
METAR-TAF:

METAR-TAF

Lotnisko :

Port lotniczy Curaçao

Curaçao, Antyle Holenderskie

Szerokość geograficzna: 12-12N, Długość geograficzna: 068-58W, wysokość: 9 m

Aktualna obserwacja pogody

Raport powstał 23 minut temu, godzina 10:00 UTC
Wiatr 9 kt od wschodnio-południowy wschód
Temperatura 26°C
Wilgotność 84%
Ciśnienie 1010 hPa
Widzialność 10 km lub więcej
Mało chmury na wysokości 1600 ft

METAR: TNCC 101000Z 11009KT 9999 FEW016 26/23 Q1010 NOSIG

czas: 06:23 (10:23 UTC)

Prognoza

Raport powstał 5 godziny i 8 minut temu, godzina 05:15 UTC
Prognoza ważna od 10 godzina 06 UTC do 11 godzina 06 UTC
Wiatr 14 kt od wschód
Widzialność 10 km lub więcej
Rozproszone chmury na wysokości 2000 ft

TAF: TNCC 100515Z 1006/1106 10014KT 9999 SCT020

Obserwacja i prognoza pogody dla ponad 4000 lotnisk (raport METAR i TAF).

Dostępne stacje oznaczono żółtymi i czerwonymi punktami na mapie.

Najedź kursorem aby zobaczyć nazwę stacji.

Kliknij aby zobaczyć obserwacje i prognozy pogody.

Aby zmienić mapę: kliknij na zielony przycisk z czarnym krzyżykiem, aby powiększyć; na zielony przycisk z myślnikiem, aby pomniejszyć; na zielone strzałki, aby przejść do map sąsiednich.


METAR-TAF: